Latest Coastal Weather Observations for Coffs Harbour

IDN60701

Issued at 12:25 am EST Tuesday 2 September 2014 (issued every 10 minutes, with the page automatically refreshed every 10 minutes)

About coastal observations | Map of coastal stations | Coastal observations for NSW | Marine services | Other Formats
Station Details ID: 059040 Name: COFFS HARBOUR MO Lat: -30.31 Lon: 153.12 Height: 5.0 m
Data from the previous 72 hours. | See also: Recent months at Coffs Harbour
Date/Time
EST
Temp

°C
Wind Pressure Rain
since 9am
mm
Weather Cloud Vis
km
Sea
Height
m
Swell
Dir
 
Speed
knots
Gust
knots
hPa Trend Height
m
Period
s
Dir
02/12:00am 16.1 N 4 5 1013.2 - 0.0 - - 10 - - - -
 
Date/Time
EST
Temp

°C
Wind Pressure Rain
since 9am
mm
Weather Cloud Vis
km
Sea
Height
m
Swell
Dir
 
Speed
knots
Gust
knots
hPa Trend Height
m
Period
s
Dir
01/11:30pm 16.6 NNW 6 7 1013.6 - 0.0 - - 10 - - - -
01/11:00pm 17.0 N 8 9 1013.8 - 0.0 - - 10 - - - -
01/10:30pm 17.0 NW 8 10 1014.0 - 0.0 - - 10 - - - -
01/10:00pm 17.2 N 4 6 1014.0 - 0.0 - - 10 - - - -
01/09:30pm 17.3 N 4 6 1014.1 - 0.0 - - 10 - - - -
01/09:00pm 17.4 N 8 10 1014.4 - 0.0 - - 10 - - - -
01/08:30pm 16.8 N 6 7 1014.5 - 0.0 - - 10 - - - -
01/08:00pm 17.0 NNE 9 10 1014.5 - 0.0 - - 10 - - - -
01/07:30pm 17.0 N 10 12 1014.6 - 0.0 - - 10 - - - -
01/07:00pm 18.1 N 9 11 1014.4 - 0.0 - - 10 - - - -
01/06:30pm 18.3 N 8 11 1014.2 - 0.0 - - 10 - - - -
01/06:00pm 18.6 N 9 12 1013.9 - 0.0 - - 10 - - - -
01/05:30pm 18.9 NNE 16 21 1013.5 - 0.0 - - 10 - - - -
01/05:00pm 19.3 NNE 17 22 1013.1 - 0.0 - - 10 - - - -
01/04:30pm 19.8 NNE 17 23 1013.0 - 0.0 - - 10 - - - -
01/04:00pm 19.9 NE 17 21 1012.9 - 0.0 - - 10 - - - -
01/03:30pm 20.7 NE 16 23 1013.0 - 0.0 - - 10 - - - -
01/03:00pm 20.9 NE 16 21 1013.2 F 0.0 Fine Partly cloudy 40 - - - -
01/02:30pm 21.1 NE 17 23 1013.5 - 0.0 - Mostly clear 10 - - - -
01/02:00pm 21.1 NE 17 22 1013.9 - 0.0 - Mostly clear 10 - - - -
01/01:30pm 21.3 NE 16 21 1014.3 - 0.0 - Mostly clear 10 - - - -
01/01:00pm 21.8 NNE 14 18 1014.7 - 0.0 - Mostly clear 10 - - - -
01/12:30pm 20.6 NE 15 19 1015.2 - 0.0 - Mostly clear 10 - - - -
01/12:00pm 21.0 NE 10 15 1015.5 - 0.0 - Mostly clear 10 - - - -
01/11:30am 23.8 NNE 8 19 1016.2 - 0.0 - Mostly clear 10 - - - -
01/11:00am 23.6 SW 7 11 1016.8 - 0.0 - Partly cloudy 10 - - - -
01/10:30am 22.8 N 6 9 1017.2 - 0.0 - Mostly clear 10 - - - -
01/10:00am 22.0 NNW 7 15 1017.6 - 0.0 - Mostly clear 10 - - - -
01/09:30am 21.4 NNW 7 11 1018.1 - 0.0 - Mostly clear 10 - - - -
01/09:00am 20.5 N 9 16 1018.4 F 0.0 Fine Partly cloudy 40 - - - -
01/08:30am 19.3 NNW 6 10 1018.5 - 0.0 - Mostly clear 10 - - - -
01/08:00am 17.6 WNW 6 7 1018.5 - 0.0 - Mostly clear 10 - - - -
01/07:30am 17.2 WNW 5 6 1018.3 - 0.0 - Mostly clear 10 - - - -
01/07:00am 15.0 NW 6 7 1018.3 - 0.0 - Mostly clear 10 - - - -
01/06:30am 12.9 WNW 7 8 1018.1 - 0.0 - - 10 - - - -
01/06:00am 13.1 NW 7 9 1018.1 F 0.0 Fine Partly cloudy 30 - - - -
01/05:30am 13.7 N 2 3 1017.6 - 0.0 - Partly cloudy 10 - - - -
01/05:00am 14.1 N 4 5 1017.4 - 0.0 - Partly cloudy 10 - - - -
01/04:30am 14.5 NNW 3 4 1017.4 - 0.0 - Cloudy 10 - - - -
01/04:00am 14.5 CALM 0 0 1017.3 - 0.0 - Cloudy 10 - - - -
01/03:30am 14.4 CALM 0 0 1017.3 - 0.0 - Partly cloudy 10 - - - -
01/03:00am 14.6 W 4 5 1017.5 - 0.0 - Cloudy 10 - - - -
01/02:30am 15.3 NW 4 4 1017.6 - 0.0 - Partly cloudy 10 - - - -
01/02:00am 15.6 WNW 1 4 1017.9 - 0.0 - Partly cloudy 10 - - - -
01/01:30am 15.6 WNW 4 5 1018.2 - 0.0 - Cloudy 10 - - - -
01/01:00am 15.6 WNW 5 5 1018.3 - 0.0 - Partly cloudy 10 - - - -
01/12:30am 15.5 W 2 4 1018.3 - 0.0 - Partly cloudy 10 - - - -
01/12:00am 15.5 CALM 0 0 1018.4 - 0.0 - Cloudy 10 - - - -
 
Date/Time
EST
Temp

°C
Wind Pressure Rain
since 9am
mm
Weather Cloud Vis
km
Sea
Height
m
Swell
Dir
 
Speed
knots
Gust
knots
hPa Trend Height
m
Period
s
Dir
31/11:30pm 15.6 CALM 0 0 1018.5 - 0.0 - Partly cloudy 10 - - - -
31/11:00pm 15.9 CALM 0 0 1018.4 - 0.0 - Partly cloudy 10 - - - -
31/10:30pm 16.0 CALM 0 0 1018.5 - 0.0 - Partly cloudy 10 - - - -
31/10:00pm 16.2 WSW 1 3 1018.7 - 0.0 - Partly cloudy 10 - - - -
31/09:30pm 16.2 CALM 0 1 1018.8 - 0.0 - Cloudy 10 - - - -
31/09:00pm 16.2 W 1 4 1018.9 - 0.0 - Cloudy 10 - - - -
31/08:30pm 16.1 W 5 6 1018.8 - 0.0 - Partly cloudy 10 - - - -
31/08:00pm 16.4 WSW 4 5 1018.8 - 0.0 - Partly cloudy 10 - - - -
31/07:30pm 16.5 S 6 10 1018.6 - 0.0 - Partly cloudy 10 - - - -
31/07:00pm 16.4 S 8 10 1018.4 - 0.0 - Partly cloudy 10 - - - -
31/06:30pm 17.0 SSW 6 9 1018.1 - 0.0 - Partly cloudy 10 - - - -
31/06:00pm 17.6 S 8 11 1017.8 - 0.0 - Cloudy 10 - - - -
31/05:30pm 18.1 S 8 12 1017.4 - 0.0 - Partly cloudy 10 - - - -
31/05:00pm 18.9 S 10 15 1017.1 - 0.0 - Partly cloudy 10 - - - -
31/04:30pm 19.1 SSE 11 15 1016.9 - 0.0 - Partly cloudy 10 - - - -
31/04:00pm 19.9 SSE 12 17 1016.5 - 0.0 - Partly cloudy 10 - - - -
31/03:30pm 20.2 SSE 12 16 1016.5 - 0.0 - Partly cloudy 10 - - - -
31/03:00pm 20.4 SSE 12 16 1016.7 R 0.0 Fine Mostly clear 40 - - - -
31/02:30pm 20.3 SSE 12 16 1016.5 - 0.0 - Mostly clear 10 - - - -
31/02:00pm 20.7 SSE 11 16 1016.6 - 0.0 - Mostly clear 10 - - - -
31/01:30pm 20.7 SSE 10 14 1016.8 - 0.0 - Mostly clear 10 - - - -
31/01:00pm 20.5 S 13 15 1017.0 - 0.0 - Mostly clear 10 - - - -
31/12:30pm 20.6 S 13 16 1017.2 - 0.0 - Mostly clear 10 - - - -
31/12:00pm 21.0 S 12 15 1017.6 R 0.0 Fine Mostly clear 40 - - - -
31/11:30am 20.2 S 13 16 1018.0 - 0.0 - Mostly clear 10 - - - -
31/11:00am 20.8 S 14 18 1018.2 - 0.0 - Mostly clear 10 - - - -
31/10:30am 20.5 S 14 18 1018.6 - 0.0 - Mostly clear 10 - - - -
31/10:00am 20.5 S 14 17 1018.8 - 0.0 - Mostly clear 10 - - - -
31/09:30am 19.6 SSW 15 22 1018.9 - 0.0 - Mostly clear 10 - - - -
31/09:00am 19.5 SW 15 21 1019.1 F 0.0 Fine Mostly clear 40 - - - -
31/08:30am 19.0 SW 12 16 1019.2 - 0.0 - Mostly clear 10 - - - -
31/08:00am 18.3 SW 9 13 1019.2 - 0.0 - Mostly clear 10 - - - -
31/07:30am 17.2 WSW 7 9 1019.1 - 0.0 - Mostly clear 10 - - - -
31/07:00am 15.9 SW 6 8 1019.0 - 0.0 - Mostly clear 10 - - - -
31/06:30am 14.4 SW 6 7 1018.7 - 0.0 - Mostly clear 10 - - - -
31/06:00am 14.0 SW 5 8 1018.4 S 0.0 Fine Mostly clear 30 - - - -
31/05:30am 14.6 WSW 8 10 1017.9 - 0.0 - Partly cloudy 10 - - - -
31/05:00am 14.9 SW 7 9 1017.8 - 0.0 - Partly cloudy 10 - - - -
31/04:30am 15.1 SW 7 9 1017.7 - 0.0 - Partly cloudy 10 - - - -
31/04:00am 15.5 SW 8 11 1017.6 - 0.0 - Cloudy 10 - - - -
31/03:30am 15.2 SW 7 8 1017.6 - 0.0 - Partly cloudy 10 - - - -
31/03:00am 15.6 WSW 6 8 1017.6 - 0.0 - Cloudy 10 - - - -
31/02:30am 15.4 WSW 7 10 1017.6 - 0.0 - Partly cloudy 10 - - - -
31/02:00am 15.6 SW 8 10 1017.7 - 0.0 - Partly cloudy 10 - - - -
31/01:30am 16.0 SW 8 9 1017.8 - 0.0 - Partly cloudy 10 - - - -
31/01:00am 16.6 SW 10 14 1018.1 - 0.0 - Partly cloudy 10 - - - -
31/12:30am 16.6 SSW 10 14 1018.2 - 0.0 - Partly cloudy 10 - - - -
31/12:00am 16.9 SW 9 13 1018.5 - 0.0 - Cloudy 10 - - - -
 
Date/Time
EST
Temp

°C
Wind Pressure Rain
since 9am
mm
Weather Cloud Vis
km
Sea
Height
m
Swell
Dir
 
Speed
knots
Gust
knots
hPa Trend Height
m
Period
s
Dir
30/11:30pm 16.8 SW 9 14 1018.5 - 0.0 - Partly cloudy 10 - - - -
30/11:00pm 16.5 WSW 8 10 1018.6 - 0.0 - Cloudy 10 - - - -
30/10:30pm 16.3 WSW 5 7 1018.7 - 0.0 - Partly cloudy 10 - - - -
30/10:00pm 16.0 SW 6 8 1018.6 - 0.0 - Partly cloudy 10 - - - -
30/09:30pm 15.9 SW 6 6 1018.6 - 0.0 - Partly cloudy 10 - - - -
30/09:00pm 15.8 SW 6 7 1018.7 - 0.0 - Cloudy 10 - - - -
30/08:30pm 14.9 WSW 5 6 1018.7 - 0.0 - - 10 - - - -
30/08:00pm 15.0 SW 6 6 1018.5 - 0.0 - - 10 - - - -
30/07:30pm 16.1 SW 8 9 1018.4 - 0.0 - - 10 - - - -
30/07:00pm 16.9 SSW 10 14 1018.2 - 0.0 - Partly cloudy 10 - - - -
30/06:30pm 17.1 SSW 10 13 1018.1 - 0.0 - - 10 - - - -
30/06:00pm 17.4 SW 9 11 1018.0 - 0.0 - - 10 - - - -
30/05:30pm 18.2 SSW 12 15 1017.8 - 0.0 - Partly cloudy 10 - - - -
30/05:00pm 19.0 SSW 12 16 1017.5 - 0.0 - Partly cloudy 10 - - - -
30/04:30pm 19.9 SW 15 19 1017.2 - 0.0 - Partly cloudy 10 - - - -
30/04:00pm 19.8 SW 13 16 1017.1 - 0.0 - Partly cloudy 10 - - - -
30/03:30pm 20.6 SW 15 20 1017.0 - 0.0 - Partly cloudy 10 - - - -
30/03:00pm 21.0 SW 15 21 1017.0 R 0.0 Haze Mostly clear 25 - - - -
30/02:30pm 20.6 SSW 16 21 1017.1 - 0.0 - Partly cloudy 10 - - - -
30/02:00pm 20.8 SW 15 22 1017.2 - 0.0 - Partly cloudy 10 - - - -
30/01:30pm 21.0 SW 16 21 1017.4 - 0.0 - Partly cloudy 10 - - - -
30/01:00pm 21.0 SW 18 25 1017.7 - 0.0 - Partly cloudy 10 - - - -
30/12:30pm 20.7 SW 15 21 1018.1 - 0.0 - Partly cloudy 10 - - - -
30/12:00pm 20.7 SW 15 22 1018.4 - 0.0 - Cloudy 10 - - - -
30/11:30am 19.7 SW 16 23 1018.7 - 0.0 - Partly cloudy 10 - - - -
30/11:00am 19.7 SW 16 20 1018.9 - 0.0 - Partly cloudy 10 - - - -
30/10:30am 18.7 SW 14 21 1019.1 - 0.0 - Cloudy 10 - - - -
30/10:00am 18.4 SW 11 16 1019.2 - 0.0 - Cloudy 10 - - - -
30/09:30am 19.2 SW 14 21 1018.9 - 0.0 - Partly cloudy 10 - - - -
30/09:09am 18.3 SW 15 25 1019.1 - 0.0 - Partly cloudy 10 - - - -
30/09:00am 18.7 SW 16 21 1019.2 S 0.0 Haze Partly cloudy 25 - - - -
30/08:30am 17.7 WSW 14 23 1019.1 - 0.0 - Partly cloudy 10 - - - -
30/08:00am 16.8 WSW 11 15 1019.1 - 0.0 - Partly cloudy 10 - - - -
30/07:30am 16.0 SW 11 15 1019.0 - 0.0 - Partly cloudy 10 - - - -
30/07:00am 15.5 WSW 13 17 1018.5 - 0.0 - Partly cloudy 10 - - - -
30/06:30am 14.7 WSW 12 18 1018.4 - 0.0 - Partly cloudy 10 - - - -
30/06:00am 14.7 SW 14 20 1018.1 - 0.0 - Cloudy 10 - - - -
30/05:30am 14.6 WSW 14 20 1017.7 - 0.0 - Partly cloudy 10 - - - -
30/05:00am 14.5 WSW 13 17 1017.5 - 0.0 - - 10 - - - -
30/04:30am 14.4 SW 15 19 1017.2 - 0.0 - Partly cloudy 10 - - - -
30/04:00am 14.6 WSW 15 20 1017.1 - 0.0 - Partly cloudy 10 - - - -
30/03:30am 14.3 SW 13 17 1017.2 - 0.0 - Partly cloudy 10 - - - -
30/03:00am 14.3 WSW 13 18 1017.4 - 0.0 - - 10 - - - -
30/02:30am 14.5 SW 11 17 1017.6 - 0.0 - - 10 - - - -
30/02:00am 14.4 WSW 10 16 1017.8 - 0.0 - - 10 - - - -
30/01:30am 14.2 WSW 11 17 1018.2 - 0.0 - - 10 - - - -
30/01:00am 14.3 WSW 12 18 1018.5 - 0.0 - - 10 - - - -
30/12:30am 14.3 WSW 13 22 1019.0 - 0.0 - - 10 - - - -

Other Formats:

Comma delimited format used in spreadsheet applications
http://www.bom.gov.au/fwo/IDN60701/IDN60701.94791.axf

JavaScript Object Notation format (JSON) in row-major order
http://www.bom.gov.au/fwo/IDN60701/IDN60701.94791.json